Terminal Aerodrome Forecast
Issued by NWS

Home | Current Version | Previous Version | Text Only | Print | Product List | Glossary On
Versions: 1 2 3 4 5 6 7 8 9 10 11 12 13 14 15 16 17 18 19
106
FTUS43 KDVN 162332
TAFCID
TAF
KCID 162332Z 1700/1724 10007KT 1SM -DZ BR OVC003
     FM170100 07004KT 1/2SM -DZ FG OVC002
      TEMPO 1703/1705 2SM -RA BR OVC004
     FM171100 30008KT 3SM BR OVC004
     FM171600 30010KT 6SM BR OVC008=

USA.gov is the U.S. government's official web portal to all federal, state and local government web resources and services.